Time,TemperatureF,DewpointF,PressureIn,WindDirection,WindDirectionDegrees,WindSpeedMPH,WindSpeedGustMPH,Humidity,HourlyPrecipIn,Conditions,Clouds,dailyrainin,SoftwareType,DateUTC
2013-01-14 00:00:00,48.3,47.2,30.08,NW,312,3.0,3.0,96,0.00,,,0.00,Wunderground v.1.15,2013-01-14 06:00:00,
2013-01-14 00:05:00,48.3,47.2,30.07,North,356,2.0,4.0,96,0.00,,,0.00,Wunderground v.1.15,2013-01-14 06:05:00,
2013-01-14 00:10:00,48.4,47.3,30.06,NNW,344,2.0,2.0,96,0.00,,,0.00,Wunderground v.1.15,2013-01-14 06:10:00,
2013-01-14 00:15:00,48.3,47.5,30.07,NW,305,2.0,5.0,97,0.00,,,0.00,Wunderground v.1.15,2013-01-14 06:15:00,
2013-01-14 00:20:00,48.2,47.1,30.08,NNW,332,3.0,4.0,96,0.00,,,0.00,Wunderground v.1.15,2013-01-14 06:20:00,
2013-01-14 00:25:00,48.1,47.0,30.07,NW,312,4.0,4.0,96,0.00,,,0.00,Wunderground v.1.15,2013-01-14 06:25:00,
2013-01-14 00:30:00,47.9,46.8,30.07,NW,322,3.0,3.0,96,0.00,,,0.00,Wunderground v.1.15,2013-01-14 06:30:00,
2013-01-14 00:35:00,47.8,46.7,30.06,NNW,340,3.0,4.0,96,0.00,,,0.00,Wunderground v.1.15,2013-01-14 06:35:00,
2013-01-14 00:40:00,47.8,46.4,30.07,NW,310,3.0,3.0,95,0.00,,,0.00,Wunderground v.1.15,2013-01-14 06:40:00,
2013-01-14 00:45:00,47.8,46.4,30.06,NW,315,3.0,3.0,95,0.00,,,0.00,Wunderground v.1.15,2013-01-14 06:45:00,
2013-01-14 00:50:00,47.7,46.3,30.06,NNW,338,2.0,2.0,95,0.00,,,0.00,Wunderground v.1.15,2013-01-14 06:50:00,
2013-01-14 00:55:00,47.7,46.6,30.06,NNW,346,2.0,2.0,96,0.00,,,0.00,Wunderground v.1.15,2013-01-14 06:55:00,
2013-01-14 01:00:00,47.7,46.6,30.05,NE,46,3.0,3.0,96,0.00,,,0.00,Wunderground v.1.15,2013-01-14 07:00:00,
2013-01-14 01:05:00,47.7,46.6,30.06,North,356,2.0,3.0,96,0.00,,,0.00,Wunderground v.1.15,2013-01-14 07:05:00,
2013-01-14 01:10:00,47.6,46.2,30.06,NNW,337,2.0,3.0,95,0.00,,,0.00,Wunderground v.1.15,2013-01-14 07:10:00,
2013-01-14 01:15:00,47.4,46.0,30.06,NNW,342,3.0,3.0,95,0.00,,,0.00,Wunderground v.1.15,2013-01-14 07:15:00,
2013-01-14 01:20:00,47.4,45.8,30.07,NW,326,3.0,3.0,94,0.00,,,0.00,Wunderground v.1.15,2013-01-14 07:20:00,
2013-01-14 01:25:00,47.5,45.9,30.07,NNW,348,3.0,3.0,94,0.00,,,0.00,Wunderground v.1.15,2013-01-14 07:25:00,
2013-01-14 01:30:00,47.4,45.8,30.06,North,11,3.0,3.0,94,0.00,,,0.00,Wunderground v.1.15,2013-01-14 07:30:00,
2013-01-14 01:35:00,47.4,45.8,30.06,North,349,3.0,3.0,94,0.00,,,0.00,Wunderground v.1.15,2013-01-14 07:35:00,
2013-01-14 01:40:00,47.4,46.0,30.05,WNW,287,3.0,3.0,95,0.00,,,0.00,Wunderground v.1.15,2013-01-14 07:40:00,
2013-01-14 01:45:00,47.4,46.0,30.05,North,358,3.0,3.0,95,0.00,,,0.00,Wunderground v.1.15,2013-01-14 07:45:00,
2013-01-14 01:50:00,47.3,45.9,30.05,ESE,104,3.0,3.0,95,0.00,,,0.00,Wunderground v.1.15,2013-01-14 07:50:00,
2013-01-14 01:55:00,47.3,45.9,30.05,WNW,302,3.0,3.0,95,0.00,,,0.00,Wunderground v.1.15,2013-01-14 07:55:00,
2013-01-14 02:00:00,47.2,45.8,30.04,NW,305,2.0,3.0,95,0.00,,,0.00,Wunderground v.1.15,2013-01-14 08:00:00,
2013-01-14 02:05:00,47.1,45.5,30.05,NW,319,2.0,3.0,94,0.00,,,0.00,Wunderground v.1.15,2013-01-14 08:05:00,
2013-01-14 02:10:00,47.1,45.5,30.06,NW,319,2.0,2.0,94,0.00,,,0.00,Wunderground v.1.15,2013-01-14 08:10:00,
2013-01-14 02:15:00,47.1,45.7,30.07,North,4,1.0,2.0,95,0.00,,,0.00,Wunderground v.1.15,2013-01-14 08:15:00,
2013-01-14 02:20:00,47.2,45.8,30.07,ENE,67,1.0,2.0,95,0.00,,,0.00,Wunderground v.1.15,2013-01-14 08:20:00,
2013-01-14 02:25:00,47.1,45.5,30.06,NNW,337,1.0,2.0,94,0.00,,,0.01,Wunderground v.1.15,2013-01-14 08:25:00,
2013-01-14 02:30:00,46.9,45.3,30.05,NE,50,2.0,2.0,94,0.19,,,0.02,Wunderground v.1.15,2013-01-14 08:30:00,
2013-01-14 02:35:00,46.8,45.4,30.05,NW,319,3.0,3.0,95,0.12,,,0.03,Wunderground v.1.15,2013-01-14 08:35:00,
2013-01-14 02:40:00,46.7,45.3,30.06,ESE,114,2.0,2.0,95,0.08,,,0.03,Wunderground v.1.15,2013-01-14 08:40:00,
2013-01-14 02:45:00,46.6,45.5,30.06,ENE,71,1.0,2.0,96,1.54,,,0.17,Wunderground v.1.15,2013-01-14 08:45:00,
2013-01-14 02:50:00,46.3,45.2,30.05,NW,326,2.0,2.0,96,0.25,,,0.20,Wunderground v.1.15,2013-01-14 08:50:00,
2013-01-14 02:55:00,46.1,45.0,30.06,NNW,342,3.0,3.0,96,0.09,,,0.20,Wunderground v.1.15,2013-01-14 08:55:00,
2013-01-14 03:00:00,46.1,45.0,30.06,North,1,2.0,2.0,96,0.05,,,0.21,Wunderground v.1.15,2013-01-14 09:00:00,
2013-01-14 03:05:00,46.1,45.0,30.05,NNW,336,2.0,2.0,96,0.05,,,0.21,Wunderground v.1.15,2013-01-14 09:05:00,
2013-01-14 03:10:00,46.0,44.9,30.05,NNE,32,2.0,2.0,96,0.86,,,0.28,Wunderground v.1.15,2013-01-14 09:10:00,
2013-01-14 03:15:00,46.0,44.9,30.04,NW,318,2.0,2.0,96,0.73,,,0.34,Wunderground v.1.15,2013-01-14 09:15:00,
2013-01-14 03:20:00,45.9,45.1,30.05,North,354,2.0,2.0,97,0.32,,,0.39,Wunderground v.1.15,2013-01-14 09:20:00,
2013-01-14 03:25:00,45.8,45.0,30.04,NW,319,1.0,2.0,97,0.10,,,0.39,Wunderground v.1.15,2013-01-14 09:25:00,
2013-01-14 03:30:00,45.8,45.0,30.03,North,11,1.0,2.0,97,0.05,,,0.39,Wunderground v.1.15,2013-01-14 09:30:00,
2013-01-14 03:35:00,45.8,45.0,30.04,NNE,18,2.0,3.0,97,0.04,,,0.40,Wunderground v.1.15,2013-01-14 09:35:00,
2013-01-14 03:40:00,45.7,44.9,30.04,NNE,23,1.0,3.0,97,0.27,,,0.42,Wunderground v.1.15,2013-01-14 09:40:00,
2013-01-14 03:45:00,45.8,45.0,30.04,NNW,333,2.0,3.0,97,0.23,,,0.44,Wunderground v.1.15,2013-01-14 09:45:00,
2013-01-14 03:50:00,45.7,44.9,30.05,North,356,2.0,2.0,97,0.15,,,0.45,Wunderground v.1.15,2013-01-14 09:50:00,
2013-01-14 03:55:00,45.8,45.0,30.04,NW,308,1.0,2.0,97,0.60,,,0.48,Wunderground v.1.15,2013-01-14 09:55:00,
2013-01-14 04:00:00,45.8,45.0,30.04,North,9,1.0,2.0,97,0.12,,,0.48,Wunderground v.1.15,2013-01-14 10:00:00,
2013-01-14 04:05:00,45.7,44.9,30.04,North,353,2.0,2.0,97,0.12,,,0.49,Wunderground v.1.15,2013-01-14 10:05:00,
2013-01-14 04:10:00,45.7,44.9,30.04,NW,323,2.0,3.0,97,0.06,,,0.49,Wunderground v.1.15,2013-01-14 10:10:00,
2013-01-14 04:15:00,45.7,44.9,30.04,ENE,60,2.0,3.0,97,0.05,,,0.50,Wunderground v.1.15,2013-01-14 10:15:00,
2013-01-14 04:20:00,45.7,44.9,30.05,NNW,328,2.0,2.0,97,0.26,,,0.54,Wunderground v.1.15,2013-01-14 10:20:00,
2013-01-14 04:25:00,45.7,44.9,30.05,NNW,343,1.0,2.0,97,0.32,,,0.57,Wunderground v.1.15,2013-01-14 10:25:00,
2013-01-14 04:30:00,45.6,44.8,30.04,NW,324,1.0,2.0,97,0.11,,,0.58,Wunderground v.1.15,2013-01-14 10:30:00,
2013-01-14 04:35:00,45.7,44.9,30.06,North,356,2.0,2.0,97,0.43,,,0.62,Wunderground v.1.15,2013-01-14 10:35:00,
2013-01-14 04:40:00,45.7,45.2,30.05,NNE,17,2.0,2.0,98,0.18,,,0.64,Wunderground v.1.15,2013-01-14 10:40:00,
2013-01-14 04:45:00,45.6,45.1,30.04,NNW,342,2.0,2.0,98,0.09,,,0.64,Wunderground v.1.15,2013-01-14 10:45:00,
2013-01-14 04:50:00,45.6,44.8,30.05,North,352,2.0,2.0,97,0.05,,,0.65,Wunderground v.1.15,2013-01-14 10:50:00,
2013-01-14 04:55:00,45.6,45.1,30.05,NNE,27,1.0,2.0,98,0.05,,,0.65,Wunderground v.1.15,2013-01-14 10:55:00,
2013-01-14 05:00:00,45.7,45.2,30.04,NNW,345,1.0,2.0,98,0.05,,,0.65,Wunderground v.1.15,2013-01-14 11:00:00,
2013-01-14 05:05:00,45.7,45.2,30.06,NNW,332,1.0,2.0,98,0.05,,,0.66,Wunderground v.1.15,2013-01-14 11:05:00,
2013-01-14 05:10:00,45.7,45.2,30.07,NNW,331,2.0,2.0,98,0.05,,,0.66,Wunderground v.1.15,2013-01-14 11:10:00,
2013-01-14 05:15:00,45.8,45.3,30.06,NW,314,1.0,2.0,98,0.05,,,0.67,Wunderground v.1.15,2013-01-14 11:15:00,
2013-01-14 05:20:00,45.8,45.3,30.05,NNW,338,1.0,2.0,98,0.11,,,0.68,Wunderground v.1.15,2013-01-14 11:20:00,
2013-01-14 05:25:00,45.8,45.3,30.05,NW,319,1.0,4.0,98,0.14,,,0.69,Wunderground v.1.15,2013-01-14 11:25:00,
2013-01-14 05:35:00,45.7,45.2,30.05,NE,49,1.0,2.0,98,0.08,,,0.70,Wunderground v.1.15,2013-01-14 11:35:00,
2013-01-14 05:40:00,45.7,45.2,30.05,North,5,1.0,2.0,98,0.06,,,0.70,Wunderground v.1.15,2013-01-14 11:40:00,
2013-01-14 05:50:00,45.7,45.2,30.04,NE,36,1.0,2.0,98,0.00,,,0.70,Wunderground v.1.15,2013-01-14 11:50:00,
2013-01-14 05:55:00,45.6,45.1,30.05,North,8,1.0,2.0,98,0.00,,,0.70,Wunderground v.1.15,2013-01-14 11:55:00,
2013-01-14 06:00:00,45.6,45.1,30.05,NNE,23,2.0,2.0,98,0.00,,,0.70,Wunderground v.1.15,2013-01-14 12:00:00,
2013-01-14 06:05:00,45.6,45.1,30.05,NW,308,1.0,2.0,98,0.00,,,0.70,Wunderground v.1.15,2013-01-14 12:05:00,
2013-01-14 06:10:00,45.6,45.1,30.05,North,352,2.0,2.0,98,0.00,,,0.70,Wunderground v.1.15,2013-01-14 12:10:00,
2013-01-14 06:15:00,45.5,45.0,30.06,NW,314,2.0,2.0,98,0.00,,,0.70,Wunderground v.1.15,2013-01-14 12:15:00,
2013-01-14 06:20:00,45.5,45.0,30.06,NE,45,1.0,2.0,98,0.00,,,0.70,Wunderground v.1.15,2013-01-14 12:20:00,
2013-01-14 06:25:00,45.5,45.0,30.06,NNE,20,1.0,2.0,98,0.00,,,0.70,Wunderground v.1.15,2013-01-14 12:25:00,
2013-01-14 06:30:00,45.4,44.9,30.06,NNE,32,2.0,2.0,98,0.00,,,0.70,Wunderground v.1.15,2013-01-14 12:30:00,
2013-01-14 06:35:00,45.4,44.9,30.06,ENE,70,2.0,2.0,98,0.00,,,0.70,Wunderground v.1.15,2013-01-14 12:35:00,
2013-01-14 06:40:00,45.4,44.9,30.06,West,279,1.0,2.0,98,0.00,,,0.70,Wunderground v.1.15,2013-01-14 12:40:00,
2013-01-14 06:45:00,45.5,45.0,30.05,NNE,29,1.0,2.0,98,0.00,,,0.70,Wunderground v.1.15,2013-01-14 12:45:00,
2013-01-14 06:50:00,45.5,45.0,30.06,ENE,58,1.0,2.0,98,0.00,,,0.70,Wunderground v.1.15,2013-01-14 12:50:00,
2013-01-14 06:55:00,45.6,45.1,30.06,East,84,1.0,2.0,98,0.00,,,0.70,Wunderground v.1.15,2013-01-14 12:55:00,
2013-01-14 07:00:00,45.7,45.2,30.06,ESE,116,1.0,1.0,98,0.00,,,0.70,Wunderground v.1.15,2013-01-14 13:00:00,
2013-01-14 07:05:00,45.6,45.1,30.06,ESE,102,1.0,2.0,98,0.00,,,0.70,Wunderground v.1.15,2013-01-14 13:05:00,
2013-01-14 07:15:00,45.7,45.2,30.06,WNW,300,1.0,2.0,98,0.00,,,0.70,Wunderground v.1.15,2013-01-14 13:15:00,
2013-01-14 07:20:00,45.7,45.2,30.06,WSW,253,1.0,1.0,98,0.00,,,0.70,Wunderground v.1.15,2013-01-14 13:20:00,
2013-01-14 07:25:00,45.7,45.2,30.06,NNE,25,1.0,2.0,98,0.00,,,0.70,Wunderground v.1.15,2013-01-14 13:25:00,
2013-01-14 07:30:00,45.9,45.4,30.06,East,99,1.0,1.0,98,0.00,,,0.70,Wunderground v.1.15,2013-01-14 13:30:00,
2013-01-14 07:35:00,45.9,45.4,30.06,NNE,29,1.0,2.0,98,0.00,,,0.70,Wunderground v.1.15,2013-01-14 13:35:00,
2013-01-14 07:40:00,45.9,45.4,30.06,NE,39,1.0,1.0,98,0.00,,,0.70,Wunderground v.1.15,2013-01-14 13:40:00,
2013-01-14 07:45:00,46.0,45.5,30.06,NNW,342,1.0,2.0,98,0.00,,,0.70,Wunderground v.1.15,2013-01-14 13:45:00,
2013-01-14 07:50:00,46.0,45.5,30.07,NW,308,0.0,2.0,98,0.00,,,0.70,Wunderground v.1.15,2013-01-14 13:50:00,
2013-01-14 07:55:00,46.1,45.6,30.06,NNE,27,1.0,2.0,98,0.00,,,0.70,Wunderground v.1.15,2013-01-14 13:55:00,
2013-01-14 08:00:00,46.2,45.7,30.06,NNE,33,1.0,1.0,98,0.00,,,0.70,Wunderground v.1.15,2013-01-14 14:00:00,
2013-01-14 08:05:00,46.3,45.8,30.07,NE,34,1.0,2.0,98,0.00,,,0.70,Wunderground v.1.15,2013-01-14 14:05:00,
2013-01-14 08:10:00,46.4,45.9,30.07,ESE,103,1.0,1.0,98,0.00,,,0.70,Wunderground v.1.15,2013-01-14 14:10:00,
2013-01-14 08:15:00,46.5,46.0,30.07,WNW,300,1.0,2.0,98,0.00,,,0.70,Wunderground v.1.15,2013-01-14 14:15:00,
2013-01-14 08:20:00,46.6,46.1,30.07,ENE,63,1.0,2.0,98,0.00,,,0.70,Wunderground v.1.15,2013-01-14 14:20:00,
2013-01-14 08:25:00,46.7,46.2,30.07,East,96,1.0,2.0,98,0.00,,,0.70,Wunderground v.1.15,2013-01-14 14:25:00,
2013-01-14 08:30:00,46.8,46.3,30.08,NNW,334,0.0,2.0,98,0.00,,,0.70,Wunderground v.1.15,2013-01-14 14:30:00,
2013-01-14 08:35:00,46.9,46.4,30.08,ENE,64,1.0,2.0,98,0.00,,,0.70,Wunderground v.1.15,2013-01-14 14:35:00,
2013-01-14 08:40:00,46.9,46.4,30.08,NNW,347,0.0,2.0,98,0.00,,,0.70,Wunderground v.1.15,2013-01-14 14:40:00,
2013-01-14 08:45:00,46.9,46.4,30.08,NNW,332,0.0,2.0,98,0.00,,,0.70,Wunderground v.1.15,2013-01-14 14:45:00,
2013-01-14 08:50:00,46.9,46.4,30.08,NNE,32,1.0,2.0,98,0.00,,,0.70,Wunderground v.1.15,2013-01-14 14:50:00,
2013-01-14 08:55:00,46.9,46.4,30.08,NNE,15,1.0,2.0,98,0.00,,,0.70,Wunderground v.1.15,2013-01-14 14:55:00,
2013-01-14 09:00:00,46.9,46.4,30.08,ENE,59,1.0,2.0,98,0.00,,,0.70,Wunderground v.1.15,2013-01-14 15:00:00,
2013-01-14 09:05:00,47.0,46.5,30.08,ENE,75,1.0,2.0,98,0.00,,,0.70,Wunderground v.1.15,2013-01-14 15:05:00,
2013-01-14 09:10:00,47.1,46.6,30.08,NNW,330,1.0,2.0,98,0.00,,,0.70,Wunderground v.1.15,2013-01-14 15:10:00,
2013-01-14 09:15:00,47.1,46.6,30.09,NNE,27,0.0,2.0,98,0.00,,,0.70,Wunderground v.1.15,2013-01-14 15:15:00,
2013-01-14 09:20:00,47.1,46.6,30.09,NE,45,1.0,2.0,98,0.00,,,0.70,Wunderground v.1.15,2013-01-14 15:20:00,
2013-01-14 09:25:00,47.2,46.7,30.09,North,11,1.0,2.0,98,0.00,,,0.70,Wunderground v.1.15,2013-01-14 15:25:00,
2013-01-14 09:30:00,47.3,46.8,30.09,ESE,110,1.0,2.0,98,0.00,,,0.70,Wunderground v.1.15,2013-01-14 15:30:00,
2013-01-14 09:35:00,47.3,46.8,30.09,NNW,332,1.0,2.0,98,0.00,,,0.70,Wunderground v.1.15,2013-01-14 15:35:00,
2013-01-14 09:40:00,47.4,46.9,30.09,NNW,330,1.0,1.0,98,0.00,,,0.70,Wunderground v.1.15,2013-01-14 15:40:00,
2013-01-14 09:45:00,47.4,46.9,30.09,NE,35,1.0,2.0,98,0.00,,,0.70,Wunderground v.1.15,2013-01-14 15:45:00,
2013-01-14 09:50:00,47.4,46.9,30.09,NNW,340,1.0,2.0,98,0.00,,,0.70,Wunderground v.1.15,2013-01-14 15:50:00,
2013-01-14 09:55:00,47.4,46.9,30.09,NNE,30,1.0,2.0,98,0.00,,,0.70,Wunderground v.1.15,2013-01-14 15:55:00,
2013-01-14 10:00:00,47.5,47.0,30.09,NE,39,1.0,1.0,98,0.00,,,0.70,Wunderground v.1.15,2013-01-14 16:00:00,
2013-01-14 10:05:00,47.7,47.4,30.09,NW,319,1.0,2.0,99,0.00,,,0.70,Wunderground v.1.15,2013-01-14 16:05:00,
2013-01-14 10:10:00,47.7,47.2,30.09,North,4,1.0,2.0,98,0.00,,,0.70,Wunderground v.1.15,2013-01-14 16:10:00,
2013-01-14 10:15:00,47.6,47.1,30.09,North,1,1.0,2.0,98,0.00,,,0.70,Wunderground v.1.15,2013-01-14 16:15:00,
2013-01-14 10:20:00,47.7,47.2,30.09,NNW,339,1.0,2.0,98,0.00,,,0.70,Wunderground v.1.15,2013-01-14 16:20:00,
2013-01-14 10:25:00,47.8,47.5,30.09,North,356,1.0,2.0,99,0.00,,,0.70,Wunderground v.1.15,2013-01-14 16:25:00,
2013-01-14 10:30:00,47.8,47.3,30.08,NNW,335,1.0,2.0,98,0.00,,,0.70,Wunderground v.1.15,2013-01-14 16:30:00,
2013-01-14 10:35:00,47.8,47.3,30.08,North,350,2.0,3.0,98,0.00,,,0.70,Wunderground v.1.15,2013-01-14 16:35:00,
2013-01-14 10:40:00,47.7,47.2,30.08,NW,316,2.0,2.0,98,0.00,,,0.70,Wunderground v.1.15,2013-01-14 16:40:00,
2013-01-14 10:45:00,47.8,47.3,30.08,NNE,15,1.0,2.0,98,0.00,,,0.70,Wunderground v.1.15,2013-01-14 16:45:00,
2013-01-14 10:50:00,47.9,47.4,30.08,NNW,338,1.0,2.0,98,0.00,,,0.70,Wunderground v.1.15,2013-01-14 16:50:00,
2013-01-14 10:55:00,47.9,47.4,30.09,WNW,294,2.0,2.0,98,0.00,,,0.70,Wunderground v.1.15,2013-01-14 16:55:00,
2013-01-14 11:00:00,47.9,47.4,30.08,North,356,2.0,2.0,98,0.00,,,0.70,Wunderground v.1.15,2013-01-14 17:00:00,
2013-01-14 11:05:00,47.8,47.3,30.08,NNE,16,2.0,2.0,98,0.00,,,0.70,Wunderground v.1.15,2013-01-14 17:05:00,
2013-01-14 11:10:00,47.9,47.4,30.09,NW,308,2.0,3.0,98,0.00,,,0.70,Wunderground v.1.15,2013-01-14 17:10:00,
2013-01-14 11:15:00,47.8,47.3,30.09,NNW,328,3.0,3.0,98,0.00,,,0.70,Wunderground v.1.15,2013-01-14 17:15:00,
2013-01-14 11:20:00,47.7,47.2,30.09,North,356,3.0,3.0,98,0.00,,,0.70,Wunderground v.1.15,2013-01-14 17:20:00,
2013-01-14 11:25:00,47.7,47.2,30.08,NE,40,3.0,3.0,98,0.00,,,0.70,Wunderground v.1.15,2013-01-14 17:25:00,
2013-01-14 11:30:00,47.7,47.2,30.08,North,4,3.0,3.0,98,0.00,,,0.70,Wunderground v.1.15,2013-01-14 17:30:00,
2013-01-14 11:35:00,47.8,47.3,30.08,North,349,3.0,3.0,98,0.00,,,0.70,Wunderground v.1.15,2013-01-14 17:35:00,
2013-01-14 11:40:00,47.7,47.2,30.07,WNW,301,3.0,5.0,98,0.00,,,0.70,Wunderground v.1.15,2013-01-14 17:40:00,
2013-01-14 11:45:00,47.7,47.2,30.08,NW,308,3.0,5.0,98,0.00,,,0.70,Wunderground v.1.15,2013-01-14 17:45:00,
2013-01-14 11:55:00,47.7,47.2,30.07,NNW,329,2.0,4.0,98,0.00,,,0.70,Wunderground v.1.15,2013-01-14 17:55:00,
2013-01-14 12:00:00,47.7,47.2,30.07,NNE,29,2.0,3.0,98,0.00,,,0.70,Wunderground v.1.15,2013-01-14 18:00:00,
2013-01-14 12:05:00,47.8,47.3,30.07,NNW,328,2.0,3.0,98,0.00,,,0.70,Wunderground v.1.15,2013-01-14 18:05:00,
2013-01-14 12:10:00,47.6,47.1,30.07,WNW,289,2.0,4.0,98,0.00,,,0.70,Wunderground v.1.15,2013-01-14 18:10:00,
2013-01-14 12:15:00,47.4,46.9,30.06,NW,314,3.0,4.0,98,0.00,,,0.70,Wunderground v.1.15,2013-01-14 18:15:00,
2013-01-14 12:20:00,47.4,46.9,30.06,NW,316,3.0,3.0,98,0.00,,,0.70,Wunderground v.1.15,2013-01-14 18:20:00,
2013-01-14 12:25:00,47.4,46.9,30.06,NW,304,2.0,4.0,98,0.00,,,0.70,Wunderground v.1.15,2013-01-14 18:25:00,
2013-01-14 12:35:00,47.5,47.0,30.06,WNW,302,3.0,3.0,98,0.00,,,0.70,Wunderground v.1.15,2013-01-14 18:35:00,
2013-01-14 12:40:00,47.5,47.0,30.06,NW,304,2.0,3.0,98,0.00,,,0.70,Wunderground v.1.15,2013-01-14 18:40:00,
2013-01-14 12:45:00,47.6,47.3,30.06,WNW,301,2.0,3.0,99,0.00,,,0.70,Wunderground v.1.15,2013-01-14 18:45:00,
2013-01-14 12:50:00,47.5,47.0,30.05,WNW,294,3.0,5.0,98,0.00,,,0.70,Wunderground v.1.15,2013-01-14 18:50:00,
2013-01-14 12:55:00,47.4,46.9,30.05,North,350,3.0,5.0,98,0.00,,,0.70,Wunderground v.1.15,2013-01-14 18:55:00,
2013-01-14 13:00:00,47.5,47.2,30.06,NW,304,3.0,5.0,99,0.00,,,0.70,Wunderground v.1.15,2013-01-14 19:00:00,
2013-01-14 13:05:00,47.4,46.9,30.06,WNW,298,3.0,7.0,98,0.00,,,0.70,Wunderground v.1.15,2013-01-14 19:05:00,
2013-01-14 13:10:00,47.2,46.7,30.06,NW,310,4.0,4.0,98,0.00,,,0.70,Wunderground v.1.15,2013-01-14 19:10:00,
2013-01-14 13:15:00,47.0,46.5,30.06,NNE,17,4.0,6.0,98,0.00,,,0.70,Wunderground v.1.15,2013-01-14 19:15:00,
2013-01-14 13:20:00,46.9,46.4,30.06,WNW,296,4.0,5.0,98,0.00,,,0.70,Wunderground v.1.15,2013-01-14 19:20:00,
2013-01-14 13:25:00,46.7,46.2,30.06,NW,319,4.0,5.0,98,0.00,,,0.70,Wunderground v.1.15,2013-01-14 19:25:00,
2013-01-14 13:30:00,46.4,45.9,30.06,WNW,294,4.0,6.0,98,0.00,,,0.70,Wunderground v.1.15,2013-01-14 19:30:00,
2013-01-14 13:40:00,46.3,45.8,30.07,NNW,328,4.0,4.0,98,0.12,,,0.72,Wunderground v.1.15,2013-01-14 19:40:00,
2013-01-14 13:45:00,46.2,45.7,30.07,WNW,300,4.0,9.0,98,0.06,,,0.72,Wunderground v.1.15,2013-01-14 19:45:00,
2013-01-14 13:50:00,46.0,45.5,30.08,North,353,5.0,5.0,98,0.04,,,0.73,Wunderground v.1.15,2013-01-14 19:50:00,
2013-01-14 14:00:00,45.9,45.4,30.08,WNW,299,4.0,4.0,98,0.04,,,0.73,Wunderground v.1.15,2013-01-14 20:00:00,
2013-01-14 14:05:00,45.9,45.4,30.08,NW,313,4.0,8.0,98,0.04,,,0.73,Wunderground v.1.15,2013-01-14 20:05:00,
2013-01-14 14:10:00,45.7,44.9,30.08,NW,326,5.0,5.0,97,0.00,,,0.73,Wunderground v.1.15,2013-01-14 20:10:00,
2013-01-14 14:15:00,45.6,44.8,30.08,NNE,25,5.0,5.0,97,0.00,,,0.73,Wunderground v.1.15,2013-01-14 20:15:00,
2013-01-14 14:20:00,45.5,44.7,30.08,NW,321,5.0,5.0,97,0.00,,,0.73,Wunderground v.1.15,2013-01-14 20:20:00,
2013-01-14 14:25:00,45.4,44.6,30.08,WNW,283,5.0,5.0,97,0.00,,,0.73,Wunderground v.1.15,2013-01-14 20:25:00,
2013-01-14 14:30:00,45.5,44.7,30.08,NW,314,4.0,4.0,97,0.00,,,0.73,Wunderground v.1.15,2013-01-14 20:30:00,
2013-01-14 14:35:00,45.4,44.6,30.08,NW,304,5.0,6.0,97,0.00,,,0.73,Wunderground v.1.15,2013-01-14 20:35:00,
2013-01-14 14:40:00,45.2,44.1,30.09,NNW,340,5.0,5.0,96,0.00,,,0.73,Wunderground v.1.15,2013-01-14 20:40:00,
2013-01-14 14:45:00,44.9,43.8,30.09,WNW,287,5.0,5.0,96,0.00,,,0.73,Wunderground v.1.15,2013-01-14 20:45:00,
2013-01-14 14:50:00,44.8,43.7,30.09,NW,304,4.0,5.0,96,0.00,,,0.73,Wunderground v.1.15,2013-01-14 20:50:00,
2013-01-14 14:55:00,44.5,43.4,30.09,North,350,5.0,5.0,96,0.00,,,0.73,Wunderground v.1.15,2013-01-14 20:55:00,
2013-01-14 15:05:00,44.0,42.9,30.09,NW,311,6.0,9.0,96,0.00,,,0.73,Wunderground v.1.15,2013-01-14 21:05:00,
2013-01-14 15:10:00,43.6,42.3,30.10,NW,311,6.0,11.0,95,0.00,,,0.74,Wunderground v.1.15,2013-01-14 21:10:00,
2013-01-14 15:15:00,43.3,42.0,30.10,NNW,348,6.0,11.0,95,3.51,,,0.91,Wunderground v.1.15,2013-01-14 21:15:00,
2013-01-14 15:25:00,42.7,41.9,30.09,North,354,4.0,5.0,97,1.18,,,1.22,Wunderground v.1.15,2013-01-14 21:25:00,
2013-01-14 15:30:00,42.5,41.7,30.10,North,358,3.0,3.0,97,0.80,,,1.29,Wunderground v.1.15,2013-01-14 21:30:00,
2013-01-14 15:35:00,42.4,41.6,30.09,NNE,33,3.0,3.0,97,0.37,,,1.33,Wunderground v.1.15,2013-01-14 21:35:00,
2013-01-14 15:40:00,42.2,41.4,30.10,WNW,297,3.0,3.0,97,0.60,,,1.37,Wunderground v.1.15,2013-01-14 21:40:00,
2013-01-14 15:45:00,42.1,41.3,30.11,WNW,298,3.0,3.0,97,0.34,,,1.42,Wunderground v.1.15,2013-01-14 21:45:00,
2013-01-14 15:50:00,42.0,41.5,30.12,WNW,294,3.0,4.0,98,0.47,,,1.45,Wunderground v.1.15,2013-01-14 21:50:00,
2013-01-14 15:55:00,41.8,41.0,30.12,WNW,294,4.0,4.0,97,0.16,,,1.47,Wunderground v.1.15,2013-01-14 21:55:00,
2013-01-14 16:00:00,41.4,40.6,30.13,NNW,345,4.0,6.0,97,0.14,,,1.48,Wunderground v.1.15,2013-01-14 22:00:00,
2013-01-14 16:05:00,41.0,40.2,30.12,NNW,344,5.0,6.0,97,0.07,,,1.48,Wunderground v.1.15,2013-01-14 22:05:00,
2013-01-14 16:10:00,40.7,39.9,30.13,WNW,302,6.0,6.0,97,0.04,,,1.48,Wunderground v.1.15,2013-01-14 22:10:00,
2013-01-14 16:15:00,40.6,39.8,30.12,NW,319,4.0,6.0,97,0.04,,,1.49,Wunderground v.1.15,2013-01-14 22:15:00,
2013-01-14 16:20:00,40.4,39.4,30.12,NW,304,4.0,7.0,96,0.09,,,1.50,Wunderground v.1.15,2013-01-14 22:20:00,
2013-01-14 16:25:00,40.1,39.1,30.12,WNW,296,4.0,7.0,96,0.07,,,1.50,Wunderground v.1.15,2013-01-14 22:25:00,
2013-01-14 16:30:00,40.0,39.0,30.14,North,4,4.0,4.0,96,0.04,,,1.50,Wunderground v.1.15,2013-01-14 22:30:00,
2013-01-14 16:35:00,39.9,38.9,30.13,NE,34,4.0,4.0,96,0.04,,,1.51,Wunderground v.1.15,2013-01-14 22:35:00,
2013-01-14 16:40:00,39.8,38.8,30.12,NE,50,3.0,3.0,96,0.04,,,1.51,Wunderground v.1.15,2013-01-14 22:40:00,
2013-01-14 16:45:00,39.7,38.7,30.14,NNE,26,4.0,4.0,96,0.06,,,1.52,Wunderground v.1.15,2013-01-14 22:45:00,
2013-01-14 16:55:00,39.4,38.6,30.14,NNW,330,3.0,4.0,97,0.44,,,1.56,Wunderground v.1.15,2013-01-14 22:55:00,
2013-01-14 17:00:00,39.2,38.4,30.15,North,355,2.0,2.0,97,0.29,,,1.60,Wunderground v.1.15,2013-01-14 23:00:00,
2013-01-14 17:05:00,38.9,37.9,30.15,NE,44,3.0,3.0,96,0.32,,,1.62,Wunderground v.1.15,2013-01-14 23:05:00,
2013-01-14 17:10:00,38.6,37.6,30.14,North,349,4.0,4.0,96,0.49,,,1.66,Wunderground v.1.15,2013-01-14 23:10:00,
2013-01-14 17:15:00,38.5,37.7,30.14,WNW,287,2.0,4.0,97,1.11,,,1.73,Wunderground v.1.15,2013-01-14 23:15:00,
2013-01-14 17:20:00,38.4,37.6,30.13,NE,50,2.0,2.0,97,0.94,,,1.81,Wunderground v.1.15,2013-01-14 23:20:00,
2013-01-14 17:25:00,38.5,37.7,30.12,ESE,110,2.0,2.0,97,1.14,,,1.91,Wunderground v.1.15,2013-01-14 23:25:00,
2013-01-14 17:30:00,38.5,37.7,30.12,East,91,2.0,2.0,97,0.38,,,1.97,Wunderground v.1.15,2013-01-14 23:30:00,
2013-01-14 17:35:00,38.8,38.3,30.11,ESE,119,2.0,3.0,98,0.20,,,1.98,Wunderground v.1.15,2013-01-14 23:35:00,
2013-01-14 17:40:00,38.9,38.4,30.11,NNE,20,3.0,3.0,98,0.20,,,2.00,Wunderground v.1.15,2013-01-14 23:40:00,
2013-01-14 17:45:00,39.1,38.6,30.13,WNW,284,2.0,3.0,98,0.34,,,2.02,Wunderground v.1.15,2013-01-14 23:45:00,
2013-01-14 17:50:00,39.2,38.7,30.13,NNW,336,2.0,2.0,98,0.49,,,2.05,Wunderground v.1.15,2013-01-14 23:50:00,
2013-01-14 17:55:00,39.4,38.9,30.14,NNW,340,1.0,2.0,98,0.21,,,2.06,Wunderground v.1.15,2013-01-14 23:55:00,
2013-01-14 18:00:00,39.5,39.0,30.14,NW,326,1.0,3.0,98,0.17,,,2.08,Wunderground v.1.15,2013-01-15 00:00:00,
2013-01-14 18:05:00,39.6,39.1,30.14,WNW,295,1.0,3.0,98,0.26,,,2.10,Wunderground v.1.15,2013-01-15 00:05:00,
2013-01-14 18:10:00,39.7,39.2,30.14,NW,322,1.0,3.0,98,0.10,,,2.10,Wunderground v.1.15,2013-01-15 00:10:00,
2013-01-14 18:15:00,39.7,39.2,30.14,NNE,16,2.0,3.0,98,0.07,,,2.11,Wunderground v.1.15,2013-01-15 00:15:00,
2013-01-14 18:20:00,39.7,39.2,30.13,NNE,25,2.0,2.0,98,0.18,,,2.13,Wunderground v.1.15,2013-01-15 00:20:00,
2013-01-14 18:25:00,39.7,39.2,30.13,NW,322,1.0,2.0,98,0.20,,,2.14,Wunderground v.1.15,2013-01-15 00:25:00,
2013-01-14 18:30:00,39.7,39.2,30.13,NW,319,2.0,2.0,98,0.08,,,2.15,Wunderground v.1.15,2013-01-15 00:30:00,
2013-01-14 18:40:00,39.7,39.2,30.13,North,4,1.0,2.0,98,0.06,,,2.15,Wunderground v.1.15,2013-01-15 00:40:00,
2013-01-14 18:45:00,39.6,39.1,30.14,NNW,342,2.0,2.0,98,0.04,,,2.15,Wunderground v.1.15,2013-01-15 00:45:00,
2013-01-14 18:50:00,39.6,39.1,30.13,North,358,2.0,2.0,98,0.00,,,2.16,Wunderground v.1.15,2013-01-15 00:50:00,
2013-01-14 18:55:00,39.6,39.1,30.13,NW,316,2.0,2.0,98,0.00,,,2.16,Wunderground v.1.15,2013-01-15 00:55:00,
2013-01-14 19:00:00,39.6,39.1,30.13,NNW,337,2.0,2.0,98,0.08,,,2.17,Wunderground v.1.15,2013-01-15 01:00:00,
2013-01-14 19:05:00,39.6,39.1,30.13,North,349,2.0,2.0,98,0.12,,,2.18,Wunderground v.1.15,2013-01-15 01:05:00,
2013-01-14 19:10:00,39.5,39.0,30.13,North,350,2.0,3.0,98,0.10,,,2.19,Wunderground v.1.15,2013-01-15 01:10:00,
2013-01-14 19:15:00,39.5,39.0,30.13,North,360,2.0,3.0,98,0.07,,,2.19,Wunderground v.1.15,2013-01-15 01:15:00,
2013-01-14 19:20:00,39.5,39.0,30.12,North,356,1.0,2.0,98,0.06,,,2.20,Wunderground v.1.15,2013-01-15 01:20:00,
2013-01-14 19:25:00,39.5,39.0,30.13,NW,308,1.0,2.0,98,0.08,,,2.21,Wunderground v.1.15,2013-01-15 01:25:00,
2013-01-14 19:30:00,39.5,39.0,30.13,NNW,339,1.0,2.0,98,0.08,,,2.21,Wunderground v.1.15,2013-01-15 01:30:00,
2013-01-14 19:35:00,39.5,39.0,30.13,NW,322,1.0,2.0,98,0.06,,,2.21,Wunderground v.1.15,2013-01-15 01:35:00,
2013-01-14 19:40:00,39.5,39.0,30.13,NNW,347,2.0,2.0,98,0.05,,,2.22,Wunderground v.1.15,2013-01-15 01:40:00,
2013-01-14 19:45:00,39.5,39.0,30.12,NW,319,2.0,2.0,98,0.05,,,2.22,Wunderground v.1.15,2013-01-15 01:45:00,
2013-01-14 19:50:00,39.5,39.0,30.12,North,359,2.0,2.0,98,0.04,,,2.22,Wunderground v.1.15,2013-01-15 01:50:00,
2013-01-14 19:55:00,39.6,39.1,30.11,NNE,13,2.0,2.0,98,0.00,,,2.22,Wunderground v.1.15,2013-01-15 01:55:00,
2013-01-14 20:00:00,39.6,39.1,30.11,NNE,27,2.0,3.0,98,0.00,,,2.23,Wunderground v.1.15,2013-01-15 02:00:00,
2013-01-14 20:05:00,39.6,39.1,30.11,NE,43,1.0,3.0,98,0.00,,,2.23,Wunderground v.1.15,2013-01-15 02:05:00,
2013-01-14 20:10:00,39.6,39.1,30.11,NNE,12,1.0,1.0,98,0.00,,,2.23,Wunderground v.1.15,2013-01-15 02:10:00,
2013-01-14 20:15:00,39.7,39.2,30.11,NNW,338,1.0,3.0,98,0.00,,,2.23,Wunderground v.1.15,2013-01-15 02:15:00,
2013-01-14 20:20:00,39.7,39.2,30.11,NW,319,1.0,2.0,98,0.00,,,2.23,Wunderground v.1.15,2013-01-15 02:20:00,
2013-01-14 20:25:00,39.7,39.2,30.11,NNW,336,2.0,2.0,98,0.00,,,2.23,Wunderground v.1.15,2013-01-15 02:25:00,
2013-01-14 20:30:00,39.8,39.3,30.11,North,1,2.0,2.0,98,0.00,,,2.23,Wunderground v.1.15,2013-01-15 02:30:00,
2013-01-14 20:35:00,39.8,39.3,30.11,North,4,1.0,2.0,98,0.00,,,2.23,Wunderground v.1.15,2013-01-15 02:35:00,
2013-01-14 20:40:00,39.9,39.4,30.11,North,360,2.0,2.0,98,0.00,,,2.23,Wunderground v.1.15,2013-01-15 02:40:00,
2013-01-14 20:45:00,39.9,39.4,30.10,NNW,328,2.0,2.0,98,0.00,,,2.23,Wunderground v.1.15,2013-01-15 02:45:00,
2013-01-14 20:50:00,39.9,39.4,30.10,NNE,23,1.0,2.0,98,0.00,,,2.23,Wunderground v.1.15,2013-01-15 02:50:00,
2013-01-14 20:55:00,39.8,39.3,30.10,North,356,2.0,2.0,98,0.00,,,2.23,Wunderground v.1.15,2013-01-15 02:55:00,
2013-01-14 21:00:00,39.8,39.3,30.10,North,9,2.0,2.0,98,0.00,,,2.23,Wunderground v.1.15,2013-01-15 03:00:00,
2013-01-14 21:05:00,39.9,39.4,30.10,North,359,2.0,2.0,98,0.00,,,2.23,Wunderground v.1.15,2013-01-15 03:05:00,
2013-01-14 21:10:00,39.9,39.4,30.10,NNE,22,1.0,2.0,98,0.00,,,2.23,Wunderground v.1.15,2013-01-15 03:10:00,
2013-01-14 21:15:00,40.0,39.5,30.09,NNW,333,1.0,2.0,98,0.00,,,2.23,Wunderground v.1.15,2013-01-15 03:15:00,
2013-01-14 21:20:00,39.9,39.4,30.09,NNW,335,2.0,2.0,98,0.00,,,2.23,Wunderground v.1.15,2013-01-15 03:20:00,
2013-01-14 21:25:00,39.9,39.4,30.10,NNW,338,2.0,2.0,98,0.00,,,2.23,Wunderground v.1.15,2013-01-15 03:25:00,
2013-01-14 21:30:00,39.9,39.4,30.10,North,352,1.0,2.0,98,0.00,,,2.23,Wunderground v.1.15,2013-01-15 03:30:00,
2013-01-14 21:35:00,39.9,39.4,30.10,NNW,340,1.0,2.0,98,0.00,,,2.23,Wunderground v.1.15,2013-01-15 03:35:00,
2013-01-14 21:40:00,39.9,39.4,30.10,NW,318,1.0,2.0,98,0.00,,,2.23,Wunderground v.1.15,2013-01-15 03:40:00,
2013-01-14 21:45:00,39.9,39.4,30.09,NNE,25,1.0,2.0,98,0.00,,,2.23,Wunderground v.1.15,2013-01-15 03:45:00,